Queen City, MO

11:26 AM CDT on September 30, 2014 (GMT -0500)
Kirksville Regional | Change Station
CLOSE
Current Station
Airport
Location: Kirksville,
Elevation: 965 ft
Nearby Weather Stations

Elev 965 ft 40.10 °N, 92.55 °W | Updated 15 minutes ago

Overcast
Overcast
64 °F
Feels Like 64 °F
N
8
Wind Variable Wind from East

Today
High -- | Low -- °F
--% Chance of Precip.
Yesterday
High -- | Low -- °F
Precip. -- in
7:05 AM 6:54 PM
Waxing Crescent, 38% visible
Pressure 29.98 in
Visibility 3.0 miles
Clouds Overcast 400 ft
Dew Point 60 °F
Humidity 87%
Rainfall 0.00 in
Snow Depth Not available.
UV 2 out of 12
Pollen 4.70 out of 12
Air Quality Not available.
Flu Activity Not available.
SPECI KIRK 301611Z AUTO 10007KT 3SM BR OVC004 18/16 A2998 RMK AO2 CIG 003V007 T01780156

More Conditions Fewer Conditions

Pressure 29.98 in
Visibility 3.0 miles
Clouds Overcast 400 ft
Dew Point 60 °F
Humidity 87%
Rainfall 0.00 in
Snow Depth Not available.
UV 2 out of 12
Pollen 4.70 out of 12
Air Quality Not available.
Flu Activity Not available.
SPECI KIRK 301611Z AUTO 10007KT 3SM BR OVC004 18/16 A2998 RMK AO2 CIG 003V007 T01780156

More Conditions Fewer Conditions

10-Day Weather Forecast

Almanac

Astronomy

Sep. 30, 2014 Rise Set
Actual Time 7:05 AM CDT 6:54 PM CDT
Civil Twilight 6:38 AM CDT 7:21 PM CDT
Nautical Twilight 6:06 AM CDT 7:52 PM CDT
Astronomical Twilight 5:34 AM CDT 8:24 PM CDT
Moon 1:15 PM CDT 11:23 PM CDT
Length of Visible Light 12h 42m
Length of Day
11h 48m
Tomorrow will be 2m 39s shorter.
Waxing Crescent, 38% of the Moon is Illuminated
Today
Waxing Crescent
Oct 1
First Quarter
Oct 8
Full
Oct 15
Last Quarter
Oct 23
New

Today's Extremes

State Highs State Lows

Community

WunderPhotos

Upload Photos

1,757,677 photos uploaded!

Nearby

Snow Depth

Station Depth Elevation
No new snow has been reported.

Earthquake Activity

City Distance Mag. Time & Date
No recent earthquake activity has been reported nearby.
Minimum magnitude displayed is 2.5.

Coastal Water Temperatures

Place Temperature
No Stations Reporting

Nearby Weather Stations